Time;durP1;ratioP1;P1;durP2;ratioP2;P2;SDS_P1;SDS_P2;PMS_P1;PMS_P2;Temp;Humidity;BMP_temperature;BMP_pressure;BME280_temperature;BME280_humidity;BME280_pressure;Samples;Min_cycle;Max_cycle;Signal;HPM_P1;HPM_P2
2023/10/30 00:00:15;;;;;;;19.38;3.00;;;;;;;;;;5072284;28;20052;-73
2023/10/30 00:02:42;;;;;;;25.67;3.38;;;;;;;;;;5072372;28;20387;-73
2023/10/30 00:05:09;;;;;;;33.08;3.63;;;;;;;;;;5070563;28;20375;-72
2023/10/30 00:07:36;;;;;;;15.90;2.40;;;;;;;;;;5072034;28;20372;-73
2023/10/30 00:10:03;;;;;;;23.45;2.97;;;;;;;;;;5072685;28;20455;-72
2023/10/30 00:12:30;;;;;;;20.00;3.15;;;;;;;;;;5071410;28;20047;-73
2023/10/30 00:15:02;;;;;;;20.95;2.53;;;;;;;;;;5072249;28;20036;-73
2023/10/30 00:17:30;;;;;;;14.73;2.85;;;;;;;;;;5070219;28;20059;-73
2023/10/30 00:19:57;;;;;;;15.82;2.53;;;;;;;;;;5072105;28;20039;-73
2023/10/30 00:22:24;;;;;;;29.60;2.90;;;;;;;;;;5071559;28;20063;-73
2023/10/30 00:24:50;;;;;;;23.63;3.47;;;;;;;;;;5070541;28;20029;-72
2023/10/30 00:27:17;;;;;;;12.77;2.45;;;;;;;;;;5069927;28;20037;-73
2023/10/30 00:29:44;;;;;;;24.20;3.45;;;;;;;;;;5071604;28;20098;-73
2023/10/30 00:32:11;;;;;;;17.60;2.40;;;;;;;;;;5070119;28;20048;-72
2023/10/30 00:34:39;;;;;;;22.92;2.83;;;;;;;;;;5071494;28;20037;-73
2023/10/30 00:37:06;;;;;;;20.60;2.28;;;;;;;;;;5070167;28;20475;-73
2023/10/30 00:39:32;;;;;;;23.13;3.00;;;;;;;;;;5053690;28;20356;-73
2023/10/30 00:42:00;;;;;;;21.42;3.38;;;;;;;;;;5070257;28;20090;-73
2023/10/30 00:44:27;;;;;;;16.27;2.65;;;;;;;;;;5070662;28;20048;-73
2023/10/30 00:46:54;;;;;;;22.85;4.35;;;;;;;;;;5071573;28;20110;-73
2023/10/30 00:49:21;;;;;;;18.95;3.30;;;;;;;;;;5070819;28;20327;-73
2023/10/30 00:51:48;;;;;;;25.10;3.17;;;;;;;;;;5071576;28;20491;-72
2023/10/30 00:54:15;;;;;;;22.02;3.88;;;;;;;;;;5069550;28;20044;-73
2023/10/30 00:56:41;;;;;;;24.33;3.22;;;;;;;;;;5057624;28;20671;-72
2023/10/30 00:59:08;;;;;;;19.60;3.38;;;;;;;;;;5051082;28;20041;-72
2023/10/30 01:01:35;;;;;;;20.08;3.40;;;;;;;;;;5049951;28;20056;-72
2023/10/30 01:04:02;;;;;;;16.98;2.80;;;;;;;;;;5049779;28;20033;-72
2023/10/30 01:06:29;;;;;;;19.85;2.58;;;;;;;;;;5062291;28;20040;-72
2023/10/30 01:08:55;;;;;;;21.23;3.17;;;;;;;;;;5070053;28;20054;-73
2023/10/30 01:11:22;;;;;;;19.30;3.67;;;;;;;;;;5069339;28;20052;-73
2023/10/30 01:13:49;;;;;;;17.08;2.55;;;;;;;;;;5071043;28;20041;-72
2023/10/30 01:16:16;;;;;;;17.13;2.78;;;;;;;;;;5069406;28;20036;-72
2023/10/30 01:18:43;;;;;;;24.60;3.38;;;;;;;;;;5069528;28;20048;-72
2023/10/30 01:21:11;;;;;;;21.02;3.40;;;;;;;;;;5070681;28;20041;-73
2023/10/30 01:23:38;;;;;;;28.02;3.22;;;;;;;;;;5071000;28;20050;-73
2023/10/30 01:26:05;;;;;;;15.00;2.30;;;;;;;;;;5069243;28;20048;-72
2023/10/30 01:28:31;;;;;;;17.80;3.38;;;;;;;;;;5070851;28;20051;-72
2023/10/30 01:30:58;;;;;;;21.90;3.20;;;;;;;;;;5071018;28;20040;-73
2023/10/30 01:33:25;;;;;;;13.95;2.75;;;;;;;;;;5070599;28;20047;-72
2023/10/30 01:35:52;;;;;;;15.68;3.45;;;;;;;;;;5070813;28;20041;-72
2023/10/30 01:38:19;;;;;;;23.25;4.15;;;;;;;;;;5070738;28;20049;-72
2023/10/30 01:40:47;;;;;;;14.32;2.55;;;;;;;;;;5070795;28;20529;-72
2023/10/30 01:43:14;;;;;;;22.88;3.47;;;;;;;;;;5070121;28;20040;-73
2023/10/30 01:45:41;;;;;;;19.60;3.53;;;;;;;;;;5070495;28;20330;-72
2023/10/30 01:48:09;;;;;;;23.58;3.72;;;;;;;;;;5070499;28;20549;-72
2023/10/30 01:50:37;;;;;;;18.70;2.53;;;;;;;;;;5070596;28;20041;-73
2023/10/30 01:53:04;;;;;;;16.52;2.70;;;;;;;;;;5070429;28;20082;-73
2023/10/30 01:55:31;;;;;;;15.77;2.60;;;;;;;;;;5069210;28;20025;-73
2023/10/30 01:57:58;;;;;;;24.30;3.08;;;;;;;;;;5074208;28;20033;-73
2023/10/30 02:00:25;;;;;;;15.60;3.10;;;;;;;;;;5074050;28;20045;-72
2023/10/30 02:02:52;;;;;;;21.20;3.47;;;;;;;;;;5074712;28;20383;-72
2023/10/30 02:05:20;;;;;;;13.57;2.72;;;;;;;;;;5073877;28;20064;-73
2023/10/30 02:07:47;;;;;;;17.02;3.03;;;;;;;;;;5073057;28;20040;-73
2023/10/30 02:10:14;;;;;;;20.25;2.92;;;;;;;;;;5074021;28;20466;-73
2023/10/30 02:12:48;;;;;;;19.77;3.00;;;;;;;;;;5072906;28;20051;-73
2023/10/30 02:15:15;;;;;;;29.73;3.22;;;;;;;;;;5074033;28;20048;-73
2023/10/30 02:17:43;;;;;;;29.83;3.83;;;;;;;;;;5074333;28;20041;-73
2023/10/30 02:20:11;;;;;;;27.88;3.58;;;;;;;;;;5074035;28;20067;-72
2023/10/30 02:22:38;;;;;;;23.10;3.17;;;;;;;;;;5074129;28;20501;-73
2023/10/30 02:25:05;;;;;;;20.92;2.92;;;;;;;;;;5073772;28;20032;-71
2023/10/30 02:27:32;;;;;;;19.85;3.33;;;;;;;;;;5074008;28;20044;-72
2023/10/30 02:29:59;;;;;;;19.60;3.13;;;;;;;;;;5074264;28;20039;-73
2023/10/30 02:32:26;;;;;;;19.95;2.90;;;;;;;;;;5073248;28;20480;-73
2023/10/30 02:34:52;;;;;;;17.70;2.50;;;;;;;;;;5074335;28;20055;-73
2023/10/30 02:37:19;;;;;;;18.55;2.53;;;;;;;;;;5073720;28;20502;-73
2023/10/30 02:39:46;;;;;;;23.52;3.65;;;;;;;;;;5073963;28;20043;-73
2023/10/30 02:42:13;;;;;;;18.35;3.50;;;;;;;;;;5073711;28;20098;-73
2023/10/30 02:44:40;;;;;;;24.00;3.42;;;;;;;;;;5073847;28;20193;-73
2023/10/30 02:47:06;;;;;;;27.40;3.20;;;;;;;;;;5073392;28;20032;-72
2023/10/30 02:49:35;;;;;;;19.85;3.10;;;;;;;;;;5073544;28;20037;-73
2023/10/30 02:52:02;;;;;;;;;;;;;;;;;;5073276;28;20047;-72
2023/10/30 02:54:29;;;;;;;29.80;4.10;;;;;;;;;;5094285;28;19920;-73
2023/10/30 02:56:56;;;;;;;23.20;2.92;;;;;;;;;;5080006;28;20110;-73
2023/10/30 02:59:22;;;;;;;14.10;2.78;;;;;;;;;;5074649;28;20120;-74
2023/10/30 03:01:49;;;;;;;21.65;2.65;;;;;;;;;;5073536;28;20047;-73
2023/10/30 03:04:16;;;;;;;23.25;3.05;;;;;;;;;;5073361;28;20086;-73
2023/10/30 03:06:44;;;;;;;20.65;2.75;;;;;;;;;;5055641;28;20040;-73
2023/10/30 03:09:11;;;;;;;29.77;3.00;;;;;;;;;;5072888;28;20376;-73
2023/10/30 03:11:38;;;;;;;16.38;3.10;;;;;;;;;;5073404;28;20048;-73
2023/10/30 03:14:04;;;;;;;19.88;2.63;;;;;;;;;;5073188;28;20478;-72
2023/10/30 03:16:31;;;;;;;20.35;3.55;;;;;;;;;;5073322;28;20046;-73
2023/10/30 03:18:58;;;;;;;11.38;2.58;;;;;;;;;;5073395;28;20632;-73
2023/10/30 03:21:25;;;;;;;25.73;3.05;;;;;;;;;;5072811;28;20366;-73
2023/10/30 03:23:52;;;;;;;16.13;2.60;;;;;;;;;;5073095;28;20064;-73
2023/10/30 03:26:19;;;;;;;19.67;2.78;;;;;;;;;;5072681;28;20053;-73
2023/10/30 03:28:45;;;;;;;18.40;2.58;;;;;;;;;;5088069;28;20032;-73
2023/10/30 03:31:12;;;;;;;26.20;2.75;;;;;;;;;;5092909;28;20040;-73
2023/10/30 03:33:39;;;;;;;19.00;2.45;;;;;;;;;;5093349;28;20043;-73
2023/10/30 03:36:06;;;;;;;25.75;3.35;;;;;;;;;;5092938;28;20036;-74
2023/10/30 03:38:33;;;;;;;24.10;2.83;;;;;;;;;;5093025;28;20056;-73
2023/10/30 03:41:00;;;;;;;17.92;3.75;;;;;;;;;;5091793;28;20036;-73
2023/10/30 03:43:27;;;;;;;27.83;3.53;;;;;;;;;;5091323;28;20375;-73
2023/10/30 03:45:53;;;;;;;18.73;2.50;;;;;;;;;;5092827;28;20032;-73
2023/10/30 03:48:20;;;;;;;24.20;2.90;;;;;;;;;;5092565;28;20044;-73
2023/10/30 03:50:51;;;;;;;16.08;2.13;;;;;;;;;;5093067;28;20097;-73
2023/10/30 03:53:17;;;;;;;18.45;2.80;;;;;;;;;;5092392;28;20048;-73
2023/10/30 03:55:44;;;;;;;17.70;2.30;;;;;;;;;;5087149;28;20033;-73
2023/10/30 03:58:12;;;;;;;23.20;3.08;;;;;;;;;;5072253;28;20383;-73
2023/10/30 04:00:39;;;;;;;14.32;1.83;;;;;;;;;;5072260;28;20045;-73
2023/10/30 04:03:05;;;;;;;14.93;2.95;;;;;;;;;;5072490;28;20416;-73
2023/10/30 04:05:32;;;;;;;12.70;2.25;;;;;;;;;;5072727;28;20029;-74
2023/10/30 04:07:59;;;;;;;20.48;2.67;;;;;;;;;;5074249;28;20495;-74
2023/10/30 04:10:26;;;;;;;18.75;4.45;;;;;;;;;;5073180;28;20063;-73
2023/10/30 04:12:53;;;;;;;14.35;3.55;;;;;;;;;;5074341;28;20029;-73
2023/10/30 04:15:20;;;;;;;13.70;3.42;;;;;;;;;;5071031;28;20101;-73
2023/10/30 04:17:47;;;;;;;14.63;2.33;;;;;;;;;;5072262;28;20484;-73
2023/10/30 04:20:13;;;;;;;10.05;2.22;;;;;;;;;;5071165;28;20041;-73
2023/10/30 04:22:40;;;;;;;15.95;2.28;;;;;;;;;;5072076;28;20048;-73
2023/10/30 04:25:08;;;;;;;15.38;3.35;;;;;;;;;;5071623;28;20049;-73
2023/10/30 04:27:35;;;;;;;19.15;2.58;;;;;;;;;;5078426;28;20059;-73
2023/10/30 04:30:02;;;;;;;16.13;2.58;;;;;;;;;;5092360;28;20044;-73
2023/10/30 04:32:29;;;;;;;16.85;3.25;;;;;;;;;;5090283;28;20482;-74
2023/10/30 04:34:56;;;;;;;20.30;2.33;;;;;;;;;;5092954;28;20036;-73
2023/10/30 04:37:23;;;;;;;12.20;1.95;;;;;;;;;;5090350;28;20040;-73
2023/10/30 04:39:49;;;;;;;13.68;3.35;;;;;;;;;;5090682;28;20039;-74
2023/10/30 04:42:17;;;;;;;23.05;6.88;;;;;;;;;;5090251;28;20469;-73
2023/10/30 04:44:43;;;;;;;13.15;3.28;;;;;;;;;;5091701;28;20116;-74
2023/10/30 04:47:10;;;;;;;18.55;3.97;;;;;;;;;;5090202;28;20062;-74
2023/10/30 04:49:38;;;;;;;13.07;1.70;;;;;;;;;;5092198;28;20123;-73
2023/10/30 04:52:05;;;;;;;16.33;3.70;;;;;;;;;;5091454;28;20067;-73
2023/10/30 04:54:32;;;;;;;17.40;2.47;;;;;;;;;;5091676;28;20040;-73
2023/10/30 04:56:58;;;;;;;15.50;2.13;;;;;;;;;;5075498;28;20041;-73
2023/10/30 04:59:25;;;;;;;13.13;2.50;;;;;;;;;;5071167;28;20040;-73
2023/10/30 05:01:52;;;;;;;17.08;2.72;;;;;;;;;;5071504;28;20044;-73
2023/10/30 05:04:19;;;;;;;26.73;3.97;;;;;;;;;;5071312;28;20122;-73
2023/10/30 05:06:46;;;;;;;17.48;2.30;;;;;;;;;;5071563;28;20056;-73
2023/10/30 05:09:13;;;;;;;15.10;2.50;;;;;;;;;;5071386;28;20060;-74
2023/10/30 05:11:40;;;;;;;19.27;2.83;;;;;;;;;;5071446;28;20102;-74
2023/10/30 05:14:07;;;;;;;15.45;2.30;;;;;;;;;;5071370;28;20037;-73
2023/10/30 05:16:35;;;;;;;14.73;2.30;;;;;;;;;;5069891;28;20044;-73
2023/10/30 05:19:02;;;;;;;9.85;2.42;;;;;;;;;;5071754;28;20078;-73
2023/10/30 05:21:28;;;;;;;14.10;2.63;;;;;;;;;;5071195;28;20037;-74
2023/10/30 05:23:56;;;;;;;19.35;3.78;;;;;;;;;;5071303;28;20033;-74
2023/10/30 05:26:22;;;;;;;17.20;2.47;;;;;;;;;;5069468;28;20059;-73
2023/10/30 05:28:49;;;;;;;14.63;2.08;;;;;;;;;;5069963;28;20044;-73
2023/10/30 05:31:16;;;;;;;13.80;2.85;;;;;;;;;;5068684;28;20056;-76
2023/10/30 05:33:43;;;;;;;14.32;2.30;;;;;;;;;;5071172;28;20061;-73
2023/10/30 05:36:10;;;;;;;10.95;1.98;;;;;;;;;;5071156;28;20094;-73
2023/10/30 05:38:37;;;;;;;10.00;2.40;;;;;;;;;;5071064;28;20044;-73
2023/10/30 05:41:04;;;;;;;14.82;1.90;;;;;;;;;;5070981;28;20036;-73
2023/10/30 05:43:31;;;;;;;15.45;1.83;;;;;;;;;;5071102;28;20070;-73
2023/10/30 05:45:58;;;;;;;8.27;1.50;;;;;;;;;;5071291;28;20044;-73
2023/10/30 05:48:25;;;;;;;16.67;2.63;;;;;;;;;;5070851;28;20090;-72
2023/10/30 05:50:52;;;;;;;16.33;1.77;;;;;;;;;;5071386;28;20048;-73
2023/10/30 05:53:18;;;;;;;10.88;1.80;;;;;;;;;;5070696;28;20037;-73
2023/10/30 05:55:45;;;;;;;13.63;2.17;;;;;;;;;;5070705;28;20040;-73
2023/10/30 05:58:12;;;;;;;14.23;2.08;;;;;;;;;;5070644;28;20037;-73
2023/10/30 06:00:39;;;;;;;11.05;1.85;;;;;;;;;;5071063;28;20102;-73
2023/10/30 06:03:09;;;;;;;12.27;2.03;;;;;;;;;;5052932;28;20033;-73
2023/10/30 06:05:36;;;;;;;12.98;2.22;;;;;;;;;;5060356;28;20086;-73
2023/10/30 06:08:03;;;;;;;17.90;2.30;;;;;;;;;;5068801;28;20056;-72
2023/10/30 06:10:30;;;;;;;13.40;2.20;;;;;;;;;;5070221;28;20517;-73
2023/10/30 06:12:56;;;;;;;13.70;2.45;;;;;;;;;;5071911;28;20131;-73
2023/10/30 06:15:23;;;;;;;17.60;2.75;;;;;;;;;;5071233;28;20048;-73
2023/10/30 06:17:50;;;;;;;22.38;2.30;;;;;;;;;;5069718;28;20060;-74
2023/10/30 06:20:17;;;;;;;11.52;2.08;;;;;;;;;;5071111;28;20139;-73
2023/10/30 06:22:43;;;;;;;15.52;1.85;;;;;;;;;;5071229;28;20051;-73
2023/10/30 06:25:10;;;;;;;14.82;1.77;;;;;;;;;;5070984;28;20036;-72
2023/10/30 06:27:37;;;;;;;13.35;1.90;;;;;;;;;;5071295;28;20040;-73
2023/10/30 06:30:04;;;;;;;14.68;1.90;;;;;;;;;;5070878;28;20498;-73
2023/10/30 06:32:31;;;;;;;10.48;1.90;;;;;;;;;;5070772;28;20044;-73
2023/10/30 06:34:59;;;;;;;12.35;1.60;;;;;;;;;;5065749;28;20066;-73
2023/10/30 06:37:26;;;;;;;14.38;1.75;;;;;;;;;;5069310;28;20558;-73
2023/10/30 06:39:53;;;;;;;11.68;1.30;;;;;;;;;;5070602;28;20192;-73
2023/10/30 06:42:19;;;;;;;10.68;1.05;;;;;;;;;;5058270;28;20048;-73
2023/10/30 06:44:46;;;;;;;12.95;1.50;;;;;;;;;;5054628;28;20041;-73
2023/10/30 06:47:13;;;;;;;8.55;1.55;;;;;;;;;;5054169;28;20055;-74
2023/10/30 06:49:40;;;;;;;6.13;1.20;;;;;;;;;;5054088;28;20048;-74
2023/10/30 06:52:06;;;;;;;10.75;1.90;;;;;;;;;;5053069;28;20041;-72
2023/10/30 06:54:33;;;;;;;12.35;1.20;;;;;;;;;;5052246;28;20048;-73
2023/10/30 06:57:00;;;;;;;10.93;1.65;;;;;;;;;;5051312;28;20037;-74
2023/10/30 06:59:28;;;;;;;13.80;1.67;;;;;;;;;;5052785;28;20061;-74
2023/10/30 07:01:54;;;;;;;6.78;1.00;;;;;;;;;;5059921;28;20414;-73
2023/10/30 07:04:22;;;;;;;10.48;0.82;;;;;;;;;;5053866;28;20097;-73
2023/10/30 07:06:50;;;;;;;4.45;0.73;;;;;;;;;;5054492;28;20090;-73
2023/10/30 07:09:18;;;;;;;6.70;0.88;;;;;;;;;;5053853;28;20135;-73
2023/10/30 07:11:44;;;;;;;9.20;1.10;;;;;;;;;;5054322;28;20080;-73
2023/10/30 07:14:11;;;;;;;4.25;0.65;;;;;;;;;;5053313;28;20052;-73
2023/10/30 07:16:38;;;;;;;7.22;1.00;;;;;;;;;;5053717;28;20086;-74
2023/10/30 07:19:23;;;;;;;10.43;1.05;;;;;;;;;;5053797;28;20114;-74
2023/10/30 07:21:50;;;;;;;6.82;0.90;;;;;;;;;;5062356;28;20471;-73
2023/10/30 07:24:17;;;;;;;6.88;1.23;;;;;;;;;;5052749;28;20033;-73
2023/10/30 07:26:43;;;;;;;9.50;1.55;;;;;;;;;;5061853;28;20068;-73
2023/10/30 07:29:10;;;;;;;7.15;1.30;;;;;;;;;;5072156;28;20047;-72
2023/10/30 07:31:37;;;;;;;11.25;1.35;;;;;;;;;;5058054;28;20550;-74
2023/10/30 07:34:04;;;;;;;8.40;1.27;;;;;;;;;;5051333;28;20045;-73
2023/10/30 07:36:31;;;;;;;8.48;1.38;;;;;;;;;;5050899;28;20045;-74
2023/10/30 07:38:58;;;;;;;4.50;1.50;;;;;;;;;;5064141;28;20051;-73
2023/10/30 07:41:25;;;;;;;6.70;1.08;;;;;;;;;;5074436;28;20051;-73
2023/10/30 07:43:52;;;;;;;8.90;1.88;;;;;;;;;;5073943;28;20055;-73
2023/10/30 07:46:19;;;;;;;8.77;1.17;;;;;;;;;;5075356;28;20088;-73
2023/10/30 07:48:46;;;;;;;11.48;1.67;;;;;;;;;;5059908;28;20040;-73
2023/10/30 07:51:13;;;;;;;10.80;1.30;;;;;;;;;;5052890;28;20514;-73
2023/10/30 07:53:40;;;;;;;11.93;2.10;;;;;;;;;;5051691;28;20053;-73
2023/10/30 07:56:07;;;;;;;11.95;1.35;;;;;;;;;;5052659;28;20044;-73
2023/10/30 07:58:33;;;;;;;14.45;2.20;;;;;;;;;;5053691;28;20304;-73
2023/10/30 08:01:00;;;;;;;11.38;1.80;;;;;;;;;;5055366;28;20116;-74
2023/10/30 08:03:27;;;;;;;15.60;1.73;;;;;;;;;;5053386;28;20037;-73
2023/10/30 08:05:58;;;;;;;12.40;1.60;;;;;;;;;;5053532;28;20041;-74
2023/10/30 08:08:28;;;;;;;12.45;1.60;;;;;;;;;;5053218;28;20045;-73
2023/10/30 08:10:55;;;;;;;10.77;1.73;;;;;;;;;;5053301;28;20065;-72
2023/10/30 08:13:22;;;;;;;7.78;1.10;;;;;;;;;;5053153;28;20110;-74
2023/10/30 08:15:49;;;;;;;9.45;1.92;;;;;;;;;;5053133;28;20041;-74
2023/10/30 08:18:16;;;;;;;7.93;1.98;;;;;;;;;;5053021;28;20041;-73
2023/10/30 08:20:43;;;;;;;11.10;2.78;;;;;;;;;;5052908;28;20052;-73
2023/10/30 08:23:11;;;;;;;16.83;3.70;;;;;;;;;;5052653;28;20044;-73
2023/10/30 08:25:38;;;;;;;9.98;2.95;;;;;;;;;;5052799;28;20051;-73
2023/10/30 08:28:04;;;;;;;9.50;3.03;;;;;;;;;;5052616;28;20505;-72
2023/10/30 08:30:32;;;;;;;15.02;2.80;;;;;;;;;;5052760;28;20041;-73
2023/10/30 08:33:00;;;;;;;14.50;3.75;;;;;;;;;;5052854;28;20045;-73
2023/10/30 08:35:27;;;;;;;14.52;4.60;;;;;;;;;;5051142;28;20159;-73
2023/10/30 08:37:55;;;;;;;15.07;5.78;;;;;;;;;;5052902;28;20104;-73
2023/10/30 08:40:22;;;;;;;13.18;4.78;;;;;;;;;;5052390;28;20091;-73
2023/10/30 08:42:48;;;;;;;14.13;4.97;;;;;;;;;;5053160;28;20044;-73
2023/10/30 08:45:15;;;;;;;13.05;4.38;;;;;;;;;;5052106;28;20068;-72
2023/10/30 08:47:43;;;;;;;14.18;4.68;;;;;;;;;;5052595;28;20128;-73
2023/10/30 08:50:11;;;;;;;12.55;4.75;;;;;;;;;;5051832;28;20064;-72
2023/10/30 08:52:38;;;;;;;12.77;4.70;;;;;;;;;;5052585;28;20044;-73
2023/10/30 08:55:05;;;;;;;14.65;4.93;;;;;;;;;;5051923;28;20110;-72
2023/10/30 08:57:32;;;;;;;10.77;4.85;;;;;;;;;;5049229;28;20036;-76
2023/10/30 08:59:59;;;;;;;16.27;5.18;;;;;;;;;;5052278;28;20494;-74
2023/10/30 09:02:26;;;;;;;10.07;3.60;;;;;;;;;;5056055;28;20041;-74
2023/10/30 09:04:53;;;;;;;15.70;3.45;;;;;;;;;;5054755;28;20046;-73
2023/10/30 09:07:20;;;;;;;13.88;3.17;;;;;;;;;;5059479;28;20136;-74
2023/10/30 09:09:47;;;;;;;9.07;1.98;;;;;;;;;;5049748;28;20052;-74
2023/10/30 09:12:14;;;;;;;11.50;1.90;;;;;;;;;;5046469;28;20045;-74
2023/10/30 09:14:41;;;;;;;7.93;1.65;;;;;;;;;;5051669;28;20049;-74
2023/10/30 09:17:08;;;;;;;13.85;1.55;;;;;;;;;;5050353;28;20040;-74
2023/10/30 09:19:36;;;;;;;4.95;1.20;;;;;;;;;;5051783;28;20071;-75
2023/10/30 09:22:03;;;;;;;9.43;1.30;;;;;;;;;;5050977;28;20052;-74
2023/10/30 09:24:30;;;;;;;4.25;1.15;;;;;;;;;;5050461;28;20044;-75
2023/10/30 09:26:57;;;;;;;9.48;2.03;;;;;;;;;;5050680;28;20060;-74
2023/10/30 09:29:24;;;;;;;10.88;3.45;;;;;;;;;;5048498;28;20061;-75
2023/10/30 09:31:51;;;;;;;8.48;5.72;;;;;;;;;;5049351;28;20384;-75
2023/10/30 09:34:19;;;;;;;13.95;7.45;;;;;;;;;;5049676;28;20506;-74
2023/10/30 09:36:46;;;;;;;12.25;6.13;;;;;;;;;;5043537;28;20064;-75
2023/10/30 09:39:13;;;;;;;7.50;3.78;;;;;;;;;;5046223;28;20041;-75
2023/10/30 09:41:43;;;;;;;8.35;2.17;;;;;;;;;;5049206;28;20048;-74
2023/10/30 09:44:11;;;;;;;2.70;1.63;;;;;;;;;;5044664;28;20057;-74
2023/10/30 09:46:39;;;;;;;6.22;1.63;;;;;;;;;;5050266;28;20475;-75
2023/10/30 09:49:10;;;;;;;5.80;1.38;;;;;;;;;;5048599;28;20044;-75
2023/10/30 09:51:38;;;;;;;6.70;2.38;;;;;;;;;;5050516;28;20041;-73
2023/10/30 09:54:06;;;;;;;3.78;1.20;;;;;;;;;;5048461;28;20063;-73
2023/10/30 09:56:34;;;;;;;5.80;1.20;;;;;;;;;;5049685;28;20057;-74
2023/10/30 09:59:01;;;;;;;3.53;1.08;;;;;;;;;;5047743;28;20056;-73
2023/10/30 10:01:28;;;;;;;7.50;1.00;;;;;;;;;;5049538;28;20060;-74
2023/10/30 10:03:55;;;;;;;4.10;0.75;;;;;;;;;;5050493;28;20127;-73
2023/10/30 10:06:22;;;;;;;3.10;1.00;;;;;;;;;;5049608;28;20049;-74
2023/10/30 10:08:49;;;;;;;8.10;1.00;;;;;;;;;;5049666;28;20037;-77
2023/10/30 10:11:20;;;;;;;3.13;0.80;;;;;;;;;;5048662;28;20080;-71
2023/10/30 10:13:48;;;;;;;8.60;1.30;;;;;;;;;;5055812;28;20432;-71
2023/10/30 10:16:31;;;;;;;3.85;0.85;;;;;;;;;;5058268;28;20083;-71
2023/10/30 10:18:58;;;;;;;4.32;1.20;;;;;;;;;;5063230;28;20049;-72
2023/10/30 10:21:26;;;;;;;4.10;1.20;;;;;;;;;;5063791;28;20349;-72
2023/10/30 10:23:53;;;;;;;6.97;1.35;;;;;;;;;;5064107;28;20552;-73
2023/10/30 10:26:29;;;;;;;3.17;0.68;;;;;;;;;;5058988;28;20044;-72
2023/10/30 10:28:56;;;;;;;5.72;0.93;;;;;;;;;;5065174;28;21239;-73
2023/10/30 10:31:23;;;;;;;6.50;1.80;;;;;;;;;;5058392;28;20059;-72
2023/10/30 10:33:50;;;;;;;3.95;1.40;;;;;;;;;;5066143;28;20043;-73
2023/10/30 10:36:17;;;;;;;6.47;1.00;;;;;;;;;;5063843;28;20040;-76
2023/10/30 10:38:57;;;;;;;6.07;1.35;;;;;;;;;;5042972;28;20052;-74
2023/10/30 10:41:27;;;;;;;5.40;0.90;;;;;;;;;;5057753;28;20052;-75
2023/10/30 10:43:56;;;;;;;3.80;1.33;;;;;;;;;;5062704;28;20045;-74
2023/10/30 10:46:23;;;;;;;7.95;1.33;;;;;;;;;;5076526;28;20498;-75
2023/10/30 10:48:50;;;;;;;9.20;1.90;;;;;;;;;;5078904;28;20036;-75
2023/10/30 10:51:37;;;;;;;7.22;1.08;;;;;;;;;;5065613;28;20498;-75
2023/10/30 10:54:26;;;;;;;6.35;1.05;;;;;;;;;;5077352;28;20115;-73
2023/10/30 10:56:54;;;;;;;3.08;1.00;;;;;;;;;;5072548;28;20052;-75
2023/10/30 10:59:28;;;;;;;10.17;1.07;;;;;;;;;;5079852;28;20040;-74
2023/10/30 11:01:59;;;;;;;10.20;2.40;;;;;;;;;;5080799;28;20131;-74
2023/10/30 11:04:29;;;;;;;8.40;2.80;;;;;;;;;;5048318;28;20041;-74
2023/10/30 11:07:01;;;;;;;8.40;2.05;;;;;;;;;;5068966;28;20036;-74
2023/10/30 11:09:51;;;;;;;8.02;1.52;;;;;;;;;;5080916;28;20042;-75
2023/10/30 11:12:43;;;;;;;12.75;1.42;;;;;;;;;;5079203;28;20048;-72
2023/10/30 11:15:34;;;;;;;10.93;1.80;;;;;;;;;;5080653;28;20055;-74
2023/10/30 11:18:21;;;;;;;8.55;0.98;;;;;;;;;;5079229;28;20348;-75
2023/10/30 11:21:07;;;;;;;8.35;3.13;;;;;;;;;;5080476;28;20037;-75
2023/10/30 11:23:52;;;;;;;11.10;2.95;;;;;;;;;;5071642;28;20040;-74
2023/10/30 11:26:40;;;;;;;7.18;1.33;;;;;;;;;;5079934;28;20118;-74
2023/10/30 11:29:11;;;;;;;5.68;1.38;;;;;;;;;;5080818;28;20132;-74
2023/10/30 11:31:52;;;;;;;10.10;1.95;;;;;;;;;;5083073;28;20068;-75
2023/10/30 11:34:23;;;;;;;8.13;1.40;;;;;;;;;;5074535;28;20037;-74
2023/10/30 11:36:50;;;;;;;10.20;1.55;;;;;;;;;;5074943;28;20032;-75
2023/10/30 11:39:20;;;;;;;7.07;1.65;;;;;;;;;;5079519;28;20036;-74
2023/10/30 11:41:53;;;;;;;7.88;1.58;;;;;;;;;;5084447;28;20378;-74
2023/10/30 11:44:21;;;;;;;10.25;1.63;;;;;;;;;;5080256;28;20045;-72
2023/10/30 11:46:51;;;;;;;9.95;1.55;;;;;;;;;;5083933;28;20130;-72
2023/10/30 11:49:21;;;;;;;7.10;1.20;;;;;;;;;;5089263;28;20042;-72
2023/10/30 11:51:51;;;;;;;9.20;1.90;;;;;;;;;;5093210;28;20039;-73
2023/10/30 11:54:40;;;;;;;9.93;1.40;;;;;;;;;;5059543;28;20127;-73
2023/10/30 11:57:07;;;;;;;11.65;1.77;;;;;;;;;;5069395;28;20390;-72
2023/10/30 11:59:33;;;;;;;5.60;1.30;;;;;;;;;;5074512;28;20048;-72
2023/10/30 12:02:01;;;;;;;7.63;1.95;;;;;;;;;;5085798;28;20433;-73
2023/10/30 12:04:28;;;;;;;14.68;1.98;;;;;;;;;;5094024;28;20344;-74
2023/10/30 12:06:55;;;;;;;10.82;1.95;;;;;;;;;;5094385;28;20382;-73
2023/10/30 12:09:22;;;;;;;8.35;1.42;;;;;;;;;;5094086;28;20505;-73
2023/10/30 12:11:50;;;;;;;10.45;1.63;;;;;;;;;;5094236;28;20048;-72
2023/10/30 12:14:18;;;;;;;8.13;1.27;;;;;;;;;;5082241;28;20044;-73
2023/10/30 12:16:50;;;;;;;9.55;1.40;;;;;;;;;;5081701;28;20044;-73
2023/10/30 12:19:21;;;;;;;6.57;1.35;;;;;;;;;;5083259;28;20051;-73
2023/10/30 12:21:49;;;;;;;9.25;1.70;;;;;;;;;;5081585;28;20402;-73
2023/10/30 12:24:20;;;;;;;7.30;1.45;;;;;;;;;;5081673;28;20414;-73
2023/10/30 12:26:47;;;;;;;12.80;1.23;;;;;;;;;;5085817;28;20051;-74
2023/10/30 12:29:21;;;;;;;8.82;1.30;;;;;;;;;;5051338;28;20044;-73
2023/10/30 12:32:03;;;;;;;11.60;1.50;;;;;;;;;;5052933;28;20047;-74
2023/10/30 12:34:35;;;;;;;8.43;1.23;;;;;;;;;;5050542;28;20040;-73
2023/10/30 12:37:23;;;;;;;10.90;1.20;;;;;;;;;;5053239;28;20048;-73
2023/10/30 12:40:09;;;;;;;;;;;;;;;;;;5051692;28;20041;-73
2023/10/30 12:42:39;;;;;;;11.27;1.67;;;;;;;;;;5053428;28;19959;-74
2023/10/30 12:45:09;;;;;;;9.95;1.35;;;;;;;;;;5051827;28;20041;-72
2023/10/30 12:47:36;;;;;;;9.93;1.30;;;;;;;;;;5053329;28;20514;-74
2023/10/30 12:50:04;;;;;;;7.82;1.15;;;;;;;;;;5053449;28;20029;-73
2023/10/30 12:52:32;;;;;;;11.67;1.17;;;;;;;;;;5058851;28;20040;-73
2023/10/30 12:54:59;;;;;;;10.23;1.50;;;;;;;;;;5083525;28;20772;-73
2023/10/30 12:57:26;;;;;;;8.25;1.60;;;;;;;;;;5080954;28;20048;-73
2023/10/30 12:59:53;;;;;;;11.82;1.75;;;;;;;;;;5082801;28;20036;-73
2023/10/30 13:02:20;;;;;;;17.25;2.10;;;;;;;;;;5082926;28;20406;-73
2023/10/30 13:04:47;;;;;;;9.65;1.40;;;;;;;;;;5078935;28;20036;-73
2023/10/30 13:07:15;;;;;;;9.52;2.03;;;;;;;;;;5081916;28;20756;-74
2023/10/30 13:09:42;;;;;;;8.82;1.48;;;;;;;;;;5065390;28;20052;-73
2023/10/30 13:12:09;;;;;;;9.55;1.60;;;;;;;;;;5079468;28;20056;-72
2023/10/30 13:14:36;;;;;;;5.78;1.38;;;;;;;;;;5082122;28;20048;-73
2023/10/30 13:17:03;;;;;;;13.63;1.92;;;;;;;;;;5083500;28;20482;-73
2023/10/30 13:19:30;;;;;;;10.55;1.45;;;;;;;;;;5090628;28;20040;-73
2023/10/30 13:21:58;;;;;;;12.98;1.90;;;;;;;;;;5093539;28;20035;-73
2023/10/30 13:24:25;;;;;;;12.05;1.50;;;;;;;;;;5091669;28;20040;-73
2023/10/30 13:26:52;;;;;;;10.52;1.40;;;;;;;;;;5092574;28;20040;-73
2023/10/30 13:29:19;;;;;;;11.77;1.60;;;;;;;;;;5071427;28;20037;-73
2023/10/30 13:31:46;;;;;;;9.45;1.70;;;;;;;;;;5072384;28;20041;-74
2023/10/30 13:34:13;;;;;;;14.10;2.35;;;;;;;;;;5072531;28;20067;-73
2023/10/30 13:36:40;;;;;;;9.95;1.42;;;;;;;;;;5066249;28;20371;-72
2023/10/30 13:39:06;;;;;;;11.00;1.90;;;;;;;;;;5070329;28;20044;-73
2023/10/30 13:41:33;;;;;;;18.48;2.25;;;;;;;;;;5071931;28;20045;-73
2023/10/30 13:44:00;;;;;;;9.43;2.05;;;;;;;;;;5075615;28;20502;-73
2023/10/30 13:46:27;;;;;;;15.80;2.53;;;;;;;;;;5071516;28;20036;-73
2023/10/30 13:48:55;;;;;;;11.63;1.55;;;;;;;;;;5071781;28;20441;-73
2023/10/30 13:51:23;;;;;;;;;;;;;;;;;;5074398;28;20040;-73
2023/10/30 13:53:53;;;;;;;11.05;2.35;;;;;;;;;;5075422;28;19920;-73
2023/10/30 13:56:21;;;;;;;10.70;2.15;;;;;;;;;;5076692;28;20470;-71
2023/10/30 13:58:50;;;;;;;11.13;1.83;;;;;;;;;;5074019;28;20040;-71
2023/10/30 14:01:18;;;;;;;;;;;;;;;;;;5073115;28;20044;-72
2023/10/30 14:03:47;;;;;;;13.13;1.48;;;;;;;;;;5075026;28;19978;-73
2023/10/30 14:06:16;;;;;;;;;;;;;;;;;;5075059;28;20040;-74
2023/10/30 14:08:43;;;;;;;18.80;2.50;;;;;;;;;;5075639;28;20355;-74
2023/10/30 14:11:09;;;;;;;12.40;1.88;;;;;;;;;;5075051;28;20044;-73
2023/10/30 14:13:36;;;;;;;11.30;1.92;;;;;;;;;;5074422;28;20044;-73
2023/10/30 14:16:04;;;;;;;10.70;1.63;;;;;;;;;;5074222;28;20471;-73
2023/10/30 14:18:31;;;;;;;14.32;1.98;;;;;;;;;;5075665;28;20094;-73
2023/10/30 14:20:58;;;;;;;15.43;2.17;;;;;;;;;;5075673;28;20043;-73
2023/10/30 14:23:25;;;;;;;11.35;1.52;;;;;;;;;;5074089;28;20345;-73
2023/10/30 14:25:51;;;;;;;15.85;2.30;;;;;;;;;;5073022;28;20051;-72
2023/10/30 14:28:18;;;;;;;8.82;1.85;;;;;;;;;;5075882;28;20051;-73
2023/10/30 14:30:45;;;;;;;10.80;1.95;;;;;;;;;;5072131;28;20387;-73
2023/10/30 14:33:12;;;;;;;16.38;2.28;;;;;;;;;;5078613;28;20033;-73
2023/10/30 14:35:39;;;;;;;9.75;2.00;;;;;;;;;;5079109;28;20097;-73
2023/10/30 14:38:06;;;;;;;12.15;2.00;;;;;;;;;;5076410;28;20136;-73
2023/10/30 14:40:33;;;;;;;17.13;2.03;;;;;;;;;;5073749;28;20060;-73